createdAt,value
2018-03-03T00:00:01.819Z,100140.19
2018-03-03T00:02:29.289Z,100142.37
2018-03-03T00:04:56.778Z,100145.77
2018-03-03T00:07:24.238Z,100136.48
2018-03-03T00:09:51.722Z,100145.55
2018-03-03T00:12:19.214Z,100151.20
2018-03-03T00:14:46.701Z,100155.27
2018-03-03T00:17:14.234Z,100150.20
2018-03-03T00:19:41.739Z,100156.58
2018-03-03T00:22:09.213Z,100154.50
2018-03-03T00:24:36.675Z,100151.33
2018-03-03T00:27:04.218Z,100156.41
2018-03-03T00:29:31.783Z,100157.00
2018-03-03T00:31:59.271Z,100154.23
2018-03-03T00:34:26.777Z,100153.41
2018-03-03T00:36:54.252Z,100151.16
2018-03-03T00:39:21.751Z,100149.16
2018-03-03T00:41:49.217Z,100157.56
2018-03-03T00:44:16.682Z,100156.91
2018-03-03T00:46:44.180Z,100156.08
2018-03-03T00:49:11.686Z,100166.40
2018-03-03T00:51:39.162Z,100170.81
2018-03-03T00:54:06.652Z,100167.05
2018-03-03T00:56:34.204Z,100169.71
2018-03-03T00:59:01.799Z,100167.91
2018-03-03T01:01:29.279Z,100170.41
2018-03-03T01:03:56.757Z,100164.32
2018-03-03T01:06:24.253Z,100165.26
2018-03-03T01:08:51.810Z,100163.67
2018-03-03T01:11:19.297Z,100165.45
2018-03-03T01:13:46.790Z,100170.31
2018-03-03T01:16:14.283Z,100170.26
2018-03-03T01:18:41.802Z,100162.84
2018-03-03T01:21:09.291Z,100167.73
2018-03-03T01:23:36.774Z,100158.80
2018-03-03T01:26:04.264Z,100168.84
2018-03-03T01:28:31.755Z,100160.83
2018-03-03T01:30:59.335Z,100170.42
2018-03-03T01:33:26.806Z,100162.72
2018-03-03T01:35:54.337Z,100163.06
2018-03-03T01:38:21.815Z,100155.20
2018-03-03T01:40:49.311Z,100160.99
2018-03-03T01:43:16.785Z,100157.30
2018-03-03T01:45:44.273Z,100165.68
2018-03-03T01:48:11.765Z,100158.71
2018-03-03T01:53:29.810Z,100160.70
2018-03-03T01:55:57.290Z,100166.09
2018-03-03T01:58:24.759Z,100162.42
2018-03-03T02:00:52.271Z,100158.28
2018-03-03T02:03:19.756Z,100155.37
2018-03-03T02:05:47.231Z,100150.95
2018-03-03T02:08:14.737Z,100146.92
2018-03-03T02:10:42.206Z,100142.92
2018-03-03T02:13:09.761Z,100142.68
2018-03-03T02:15:37.305Z,100142.00
2018-03-03T02:18:04.770Z,100146.34
2018-03-03T02:20:32.302Z,100146.28
2018-03-03T02:22:59.870Z,100143.48
2018-03-03T02:25:27.347Z,100146.13
2018-03-03T02:27:54.850Z,100143.36
2018-03-03T02:30:22.336Z,100139.40
2018-03-03T02:32:49.804Z,100145.97
2018-03-03T02:35:17.294Z,100149.56
2018-03-03T02:37:44.788Z,100146.31
2018-03-03T02:40:12.275Z,100142.45
2018-03-03T02:42:39.742Z,100144.89
2018-03-03T02:45:07.234Z,100141.22
2018-03-03T02:47:34.713Z,100148.61
2018-03-03T02:50:02.199Z,100148.23
2018-03-03T02:52:29.706Z,100148.59
2018-03-03T02:54:57.186Z,100142.00
2018-03-03T02:57:24.690Z,100141.58
2018-03-03T02:59:52.358Z,100141.17
2018-03-03T03:02:19.914Z,100133.52
2018-03-03T03:04:47.388Z,100138.06
2018-03-03T03:07:14.874Z,100137.53
2018-03-03T03:09:42.365Z,100133.54
2018-03-03T03:12:09.855Z,100133.33
2018-03-03T03:14:37.356Z,100134.83
2018-03-03T03:17:04.834Z,100139.53
2018-03-03T03:19:32.327Z,100140.91
2018-03-03T03:21:59.811Z,100131.73
2018-03-03T03:24:27.288Z,100140.41
2018-03-03T03:26:54.783Z,100140.48
2018-03-03T03:29:22.283Z,100141.18
2018-03-03T03:31:49.753Z,100137.64
2018-03-03T03:34:17.260Z,100135.23
2018-03-03T03:36:44.751Z,100134.45
2018-03-03T03:39:12.317Z,100132.13
2018-03-03T03:41:39.826Z,100129.53
2018-03-03T03:44:07.302Z,100131.00
2018-03-03T03:46:34.780Z,100141.42
2018-03-03T03:49:02.288Z,100142.88
2018-03-03T03:51:29.774Z,100138.61
2018-03-03T03:53:57.266Z,100143.91
2018-03-03T03:56:24.790Z,100139.23
2018-03-03T03:58:52.283Z,100138.20
2018-03-03T04:01:19.763Z,100141.20
2018-03-03T04:03:47.365Z,100141.39
2018-03-03T04:06:14.846Z,100146.67
2018-03-03T04:08:42.314Z,100148.42
2018-03-03T04:11:09.797Z,100149.89
2018-03-03T04:13:37.264Z,100152.83
2018-03-03T04:16:04.762Z,100158.67
2018-03-03T04:18:32.298Z,100158.04
2018-03-03T04:20:59.766Z,100154.02
2018-03-03T04:23:27.272Z,100150.76
2018-03-03T04:25:54.744Z,100141.85
2018-03-03T04:28:22.240Z,100145.53
2018-03-03T04:30:49.737Z,100149.84
2018-03-03T04:33:17.198Z,100142.66
2018-03-03T04:35:44.690Z,100148.37
2018-03-03T04:38:12.155Z,100143.64
2018-03-03T04:40:39.652Z,100139.52
2018-03-03T04:43:07.175Z,100134.83
2018-03-03T04:45:34.653Z,100147.50
2018-03-03T04:48:02.144Z,100143.52
2018-03-03T04:50:29.641Z,100141.53
2018-03-03T04:52:57.126Z,100136.91
2018-03-03T04:55:24.595Z,100140.64
2018-03-03T04:57:52.082Z,100140.16
2018-03-03T05:00:25.952Z,100149.55
2018-03-03T05:02:56.258Z,100139.04
2018-03-03T05:08:27.089Z,100134.80
2018-03-03T05:10:54.901Z,100142.32
2018-03-03T05:13:24.138Z,100134.02
2018-03-03T05:16:08.370Z,100134.27
2018-03-03T05:18:41.309Z,100133.66
2018-03-03T05:24:21.606Z,100131.59
2018-03-03T05:26:54.795Z,100128.37
2018-03-03T05:29:27.865Z,100132.04
2018-03-03T05:32:01.005Z,100135.23
2018-03-03T05:34:47.150Z,100136.75
2018-03-03T05:37:20.279Z,100148.44
2018-03-03T05:39:53.485Z,100142.81
2018-03-03T05:42:26.421Z,100150.59
2018-03-03T05:48:00.685Z,100142.81
2018-03-03T05:50:33.955Z,100138.39
2018-03-03T05:53:07.099Z,100146.31
2018-03-03T05:55:37.433Z,100146.47
2018-03-03T06:01:12.515Z,100150.39
2018-03-03T06:03:45.675Z,100148.20
2018-03-03T06:06:23.032Z,100151.16
2018-03-03T06:08:51.465Z,100148.08
2018-03-03T06:11:18.926Z,100145.16
2018-03-03T06:13:46.426Z,100138.77
2018-03-03T06:16:13.993Z,100131.59
2018-03-03T06:18:41.471Z,100131.34
2018-03-03T06:21:08.939Z,100139.61
2018-03-03T06:23:36.446Z,100141.91
2018-03-03T06:26:03.908Z,100142.61
2018-03-03T06:28:31.438Z,100143.06
2018-03-03T06:30:58.936Z,100140.80
2018-03-03T06:33:26.423Z,100137.12
2018-03-03T06:35:53.915Z,100137.86
2018-03-03T06:38:21.496Z,100137.23
2018-03-03T06:40:48.965Z,100134.26
2018-03-03T06:43:16.458Z,100137.16
2018-03-03T06:45:43.955Z,100133.08
2018-03-03T06:48:11.456Z,100136.61
2018-03-03T06:50:38.957Z,100137.79
2018-03-03T06:53:06.426Z,100137.28
2018-03-03T06:55:33.897Z,100138.13
2018-03-03T06:58:01.409Z,100139.69
2018-03-03T07:00:28.967Z,100136.01
2018-03-03T07:02:56.437Z,100132.49
2018-03-03T07:05:23.942Z,100134.69
2018-03-03T07:07:51.441Z,100127.97
2018-03-03T07:10:18.930Z,100131.57
2018-03-03T07:12:46.424Z,100128.63
2018-03-03T07:15:14.370Z,100137.26
2018-03-03T07:17:41.848Z,100138.91
2018-03-03T07:20:09.362Z,100138.36
2018-03-03T07:22:36.933Z,100135.48
2018-03-03T07:25:04.430Z,100137.20
2018-03-03T07:27:31.934Z,100147.58
2018-03-03T07:29:59.442Z,100139.80
2018-03-03T07:32:26.906Z,100138.98
2018-03-03T07:34:54.394Z,100136.47
2018-03-03T07:37:21.974Z,100137.26
2018-03-03T07:39:49.529Z,100144.78
2018-03-03T07:42:17.002Z,100134.73
2018-03-03T07:44:44.478Z,100136.02
2018-03-03T07:47:11.950Z,100131.31
2018-03-03T07:49:39.440Z,100132.36
2018-03-03T07:52:06.905Z,100130.70
2018-03-03T07:54:34.369Z,100124.76
2018-03-03T07:57:11.774Z,100123.93
2018-03-03T07:59:39.303Z,100121.54
2018-03-03T08:02:06.767Z,100126.36
2018-03-03T08:04:34.262Z,100132.34
2018-03-03T08:07:01.768Z,100125.20
2018-03-03T08:09:29.250Z,100132.88
2018-03-03T08:11:56.729Z,100130.86
2018-03-03T08:14:24.286Z,100128.75
2018-03-03T08:16:51.771Z,100124.68
2018-03-03T08:19:19.250Z,100118.34
2018-03-03T08:21:46.737Z,100116.55
2018-03-03T08:24:14.307Z,100119.58
2018-03-03T08:26:41.913Z,100117.19
2018-03-03T08:29:09.387Z,100124.09
2018-03-03T08:31:36.871Z,100112.30
2018-03-03T08:34:04.442Z,100119.03
2018-03-03T08:36:31.922Z,100116.00
2018-03-03T08:38:59.386Z,100119.84
2018-03-03T08:41:26.924Z,100108.00
2018-03-03T08:43:54.437Z,100119.94
2018-03-03T08:46:21.958Z,100117.80
2018-03-03T08:48:49.601Z,100119.55
2018-03-03T08:51:17.077Z,100121.09
2018-03-03T08:53:44.610Z,100125.50
2018-03-03T08:56:12.121Z,100121.70
2018-03-03T08:58:39.586Z,100123.17
2018-03-03T09:01:07.082Z,100122.16
2018-03-03T09:03:35.304Z,100122.47
2018-03-03T09:06:02.799Z,100123.79
2018-03-03T09:08:30.267Z,100129.05
2018-03-03T09:10:57.805Z,100128.25
2018-03-03T09:13:25.350Z,100128.05
2018-03-03T09:15:52.897Z,100129.56
2018-03-03T09:18:20.407Z,100127.66
2018-03-03T09:20:47.956Z,100125.23
2018-03-03T09:23:15.538Z,100127.70
2018-03-03T09:25:43.092Z,100128.09
2018-03-03T09:28:10.563Z,100124.44
2018-03-03T09:30:38.066Z,100114.10
2018-03-03T09:33:05.559Z,100127.24
2018-03-03T09:35:33.032Z,100132.24
2018-03-03T09:38:00.557Z,100132.70
2018-03-03T09:40:28.045Z,100129.11
2018-03-03T09:42:55.546Z,100126.50
2018-03-03T09:45:23.041Z,100125.44
2018-03-03T09:47:50.581Z,100119.78
2018-03-03T09:50:18.062Z,100123.17
2018-03-03T09:52:45.539Z,100120.16
2018-03-03T09:55:13.072Z,100123.98
2018-03-03T09:57:40.660Z,100125.42
2018-03-03T10:00:08.154Z,100111.25
2018-03-03T10:02:35.665Z,100111.34
2018-03-03T10:05:03.228Z,100104.64
2018-03-03T10:07:30.697Z,100108.58
2018-03-03T10:09:58.187Z,100113.92
2018-03-03T10:12:25.678Z,100104.48
2018-03-03T10:14:53.295Z,100108.11
2018-03-03T10:17:20.776Z,100105.16
2018-03-03T10:19:48.362Z,100107.40
2018-03-03T10:22:15.846Z,100106.45
2018-03-03T10:24:43.370Z,100093.22
2018-03-03T10:27:10.838Z,100101.32
2018-03-03T10:29:38.317Z,100102.97
2018-03-03T10:32:05.812Z,100097.36
2018-03-03T10:34:33.283Z,100102.02
2018-03-03T10:37:00.782Z,100090.70
2018-03-03T10:39:28.298Z,100088.33
2018-03-03T10:41:55.785Z,100089.62
2018-03-03T10:44:23.319Z,100093.38
2018-03-03T10:46:50.798Z,100089.34
2018-03-03T10:49:18.286Z,100083.97
2018-03-03T10:51:45.817Z,100090.97
2018-03-03T10:54:13.281Z,100090.22
2018-03-03T10:56:40.814Z,100085.49
2018-03-03T10:59:08.420Z,100093.22
2018-03-03T11:01:35.956Z,100084.82
2018-03-03T11:04:05.941Z,100076.88
2018-03-03T11:06:33.604Z,100073.91
2018-03-03T11:09:01.095Z,100065.31
2018-03-03T11:11:28.641Z,100066.73
2018-03-03T11:13:56.312Z,100060.83
2018-03-03T11:16:23.802Z,100055.86
2018-03-03T11:18:51.267Z,100056.84
2018-03-03T11:21:19.044Z,100057.51
2018-03-03T11:23:46.599Z,100057.61
2018-03-03T11:26:14.098Z,100048.44
2018-03-03T11:28:41.594Z,100043.52
2018-03-03T11:31:09.054Z,100052.80
2018-03-03T11:33:36.584Z,100051.39
2018-03-03T11:36:04.094Z,100049.84
2018-03-03T11:38:31.553Z,100060.20
2018-03-03T11:40:59.341Z,100056.95
2018-03-03T11:43:26.850Z,100058.42
2018-03-03T11:45:54.375Z,100057.48
2018-03-03T11:48:21.889Z,100059.30
2018-03-03T11:50:49.377Z,100058.57
2018-03-03T11:53:16.985Z,100052.31
2018-03-03T11:55:44.458Z,100059.73
2018-03-03T11:58:11.954Z,100065.13
2018-03-03T12:00:39.437Z,100055.91
2018-03-03T12:03:06.925Z,100063.81
2018-03-03T12:05:34.460Z,100059.19
2018-03-03T12:08:01.944Z,100046.94
2018-03-03T12:10:29.430Z,100057.08
2018-03-03T12:12:57.010Z,100052.44
2018-03-03T12:15:24.517Z,100057.69
2018-03-03T12:17:52.051Z,100060.55
2018-03-03T12:20:19.616Z,100061.10
2018-03-03T12:22:47.086Z,100065.70
2018-03-03T12:25:14.567Z,100069.16
2018-03-03T12:27:42.055Z,100070.46
2018-03-03T12:30:09.584Z,100072.41
2018-03-03T12:32:37.045Z,100063.39
2018-03-03T12:35:04.556Z,100050.28
2018-03-03T12:37:32.110Z,100067.30
2018-03-03T12:39:59.570Z,100061.79
2018-03-03T12:42:27.073Z,100055.34
2018-03-03T12:44:54.545Z,100052.59
2018-03-03T12:47:22.033Z,100050.30
2018-03-03T12:49:49.491Z,100055.59
2018-03-03T12:52:17.007Z,100063.48
2018-03-03T12:54:44.524Z,100053.42
2018-03-03T12:57:12.112Z,100058.48
2018-03-03T12:59:39.684Z,100055.10
2018-03-03T13:02:07.159Z,100055.00
2018-03-03T13:04:35.192Z,100059.34
2018-03-03T13:07:02.693Z,100060.70
2018-03-03T13:09:30.151Z,100049.17
2018-03-03T13:11:57.614Z,100054.47
2018-03-03T13:14:25.109Z,100047.88
2018-03-03T13:16:52.658Z,100052.91
2018-03-03T13:19:20.142Z,100047.58
2018-03-03T13:21:47.623Z,100040.37
2018-03-03T13:24:15.109Z,100040.44
2018-03-03T13:26:42.665Z,100038.27
2018-03-03T13:29:10.146Z,100034.75
2018-03-03T13:31:37.635Z,100032.09
2018-03-03T13:34:05.132Z,100023.67
2018-03-03T13:36:32.613Z,100024.97
2018-03-03T13:39:00.230Z,100026.62
2018-03-03T13:41:27.710Z,100035.06
2018-03-03T13:43:55.175Z,100038.41
2018-03-03T13:46:22.630Z,100040.46
2018-03-03T13:48:50.114Z,100033.92
2018-03-03T13:51:17.588Z,100025.80
2018-03-03T13:53:45.110Z,100027.43
2018-03-03T13:56:12.571Z,100035.09
2018-03-03T13:58:40.047Z,100032.14
2018-03-03T14:01:07.664Z,100031.92
2018-03-03T14:03:35.094Z,100025.39
2018-03-03T14:06:02.636Z,100018.06
2018-03-03T14:08:30.110Z,100016.24
2018-03-03T14:10:57.580Z,100023.39
2018-03-03T14:13:25.095Z,100019.31
2018-03-03T14:15:52.561Z,100020.84
2018-03-03T14:18:20.022Z,100024.31
2018-03-03T14:20:47.891Z,100015.00
2018-03-03T14:23:15.466Z,100015.77
2018-03-03T14:25:42.924Z,100012.19
2018-03-03T14:28:10.449Z,100009.27
2018-03-03T14:30:37.910Z,100011.36
2018-03-03T14:33:05.466Z,100006.37
2018-03-03T14:35:33.073Z,100010.34
2018-03-03T14:38:00.531Z,100007.28
2018-03-03T14:40:28.002Z,100005.30
2018-03-03T14:42:55.609Z,100005.05
2018-03-03T14:45:23.173Z,99994.41
2018-03-03T14:47:50.729Z,100000.66
2018-03-03T14:50:18.203Z,100000.45
2018-03-03T14:52:45.711Z,99993.53
2018-03-03T14:55:13.183Z,99996.36
2018-03-03T14:57:40.665Z,100005.25
2018-03-03T15:00:08.153Z,100001.55
2018-03-03T15:02:35.715Z,99992.27
2018-03-03T15:05:03.194Z,100000.70
2018-03-03T15:07:30.694Z,99998.12
2018-03-03T15:09:58.189Z,100001.92
2018-03-03T15:12:25.654Z,100015.86
2018-03-03T15:14:53.167Z,100011.06
2018-03-03T15:17:20.636Z,100006.95
2018-03-03T15:19:48.164Z,100013.09
2018-03-03T15:22:15.617Z,100001.98
2018-03-03T15:24:43.115Z,100008.48
2018-03-03T15:27:10.603Z,100010.63
2018-03-03T15:29:38.063Z,100013.12
2018-03-03T15:32:05.605Z,100010.74
2018-03-03T15:34:33.075Z,100012.05
2018-03-03T15:37:00.665Z,100009.18
2018-03-03T15:39:28.183Z,100005.36
2018-03-03T15:41:55.647Z,100009.47
2018-03-03T15:44:23.106Z,100008.81
2018-03-03T15:46:50.582Z,100018.58
2018-03-03T15:49:18.074Z,100021.20
2018-03-03T15:51:45.561Z,100019.97
2018-03-03T15:54:13.040Z,100022.98
2018-03-03T15:56:40.541Z,100030.36
2018-03-03T15:59:08.024Z,100027.03
2018-03-03T16:01:35.578Z,100034.46
2018-03-03T16:04:03.080Z,100030.08
2018-03-03T16:06:30.588Z,100029.41
2018-03-03T16:08:58.111Z,100032.32
2018-03-03T16:11:25.832Z,100034.23
2018-03-03T16:13:53.368Z,100030.67
2018-03-03T16:16:20.830Z,100034.89
2018-03-03T16:18:48.327Z,100037.39
2018-03-03T16:21:15.813Z,100036.06
2018-03-03T16:23:43.291Z,100036.06
2018-03-03T16:26:10.782Z,100036.27
2018-03-03T16:28:38.248Z,100040.08
2018-03-03T16:31:05.722Z,100048.27
2018-03-03T16:33:33.213Z,100039.36
2018-03-03T16:36:00.699Z,100050.44
2018-03-03T16:38:28.237Z,100046.28
2018-03-03T16:40:55.735Z,100044.63
2018-03-03T16:43:23.210Z,100055.20
2018-03-03T16:45:50.712Z,100052.05
2018-03-03T16:48:18.259Z,100053.10
2018-03-03T16:50:45.753Z,100068.95
2018-03-03T16:53:13.235Z,100061.60
2018-03-03T16:55:40.845Z,100070.25
2018-03-03T16:58:08.325Z,100073.86
2018-03-03T17:00:35.788Z,100070.70
2018-03-03T17:03:03.282Z,100075.45
2018-03-03T17:05:30.755Z,100073.91
2018-03-03T17:07:58.230Z,100074.45
2018-03-03T17:10:25.725Z,100071.53
2018-03-03T17:12:53.291Z,100069.20
2018-03-03T17:15:20.771Z,100069.30
2018-03-03T17:17:48.266Z,100072.84
2018-03-03T17:20:15.726Z,100072.58
2018-03-03T17:22:43.459Z,100074.45
2018-03-03T17:25:11.047Z,100078.70
2018-03-03T17:27:38.606Z,100076.83
2018-03-03T17:30:06.086Z,100078.20
2018-03-03T17:32:33.621Z,100077.79
2018-03-03T17:35:01.087Z,100077.28
2018-03-03T17:37:28.564Z,100081.16
2018-03-03T17:39:56.046Z,100078.15
2018-03-03T17:42:23.558Z,100079.66
2018-03-03T17:44:51.057Z,100077.36
2018-03-03T17:47:18.540Z,100073.43
2018-03-03T17:49:46.018Z,100071.42
2018-03-03T17:52:13.494Z,100071.34
2018-03-03T17:54:40.989Z,100079.55
2018-03-03T17:57:08.452Z,100075.80
2018-03-03T17:59:35.943Z,100079.81
2018-03-03T18:02:03.426Z,100084.23
2018-03-03T18:04:30.930Z,100084.13
2018-03-03T18:06:58.752Z,100088.05
2018-03-03T18:09:26.399Z,100082.57
2018-03-03T18:11:59.847Z,100084.30
2018-03-03T18:14:27.304Z,100085.52
2018-03-03T18:16:54.858Z,100080.68
2018-03-03T18:19:39.957Z,100082.61
2018-03-03T18:22:07.536Z,100085.80
2018-03-03T18:24:37.958Z,100088.12
2018-03-03T18:27:05.457Z,100093.12
2018-03-03T18:29:32.951Z,100098.73
2018-03-03T18:32:00.438Z,100098.92
2018-03-03T18:34:27.954Z,100099.34
2018-03-03T18:36:55.434Z,100101.16
2018-03-03T18:39:22.980Z,100103.03
2018-03-03T18:41:50.423Z,100095.48
2018-03-03T18:44:17.954Z,100103.37
2018-03-03T18:46:45.446Z,100108.55
2018-03-03T18:49:13.042Z,100108.19
2018-03-03T18:51:40.661Z,100111.14
2018-03-03T18:54:08.126Z,100109.34
2018-03-03T18:56:36.093Z,100115.66
2018-03-03T18:59:03.558Z,100118.66
2018-03-03T19:01:31.067Z,100118.95
2018-03-03T19:03:58.562Z,100125.23
2018-03-03T19:06:26.118Z,100131.86
2018-03-03T19:08:53.646Z,100131.55
2018-03-03T19:11:21.141Z,100134.63
2018-03-03T19:13:48.620Z,100138.17
2018-03-03T19:16:16.140Z,100140.19
2018-03-03T19:18:43.648Z,100146.32
2018-03-03T19:21:11.165Z,100139.10
2018-03-03T19:23:38.681Z,100141.47
2018-03-03T19:26:06.214Z,100138.30
2018-03-03T19:31:07.610Z,100146.45
2018-03-03T19:33:35.106Z,100151.95
2018-03-03T19:36:02.593Z,100143.73
2018-03-03T19:38:30.188Z,100148.91
2018-03-03T19:40:57.691Z,100152.92
2018-03-03T19:43:25.166Z,100150.98
2018-03-03T19:45:52.659Z,100155.86
2018-03-03T19:48:20.151Z,100156.40
2018-03-03T19:50:47.656Z,100152.59
2018-03-03T19:53:15.161Z,100159.34
2018-03-03T19:55:42.651Z,100154.05
2018-03-03T19:58:10.134Z,100157.27
2018-03-03T20:00:37.711Z,100150.31
2018-03-03T20:03:05.251Z,100157.33
2018-03-03T20:05:32.726Z,100161.91
2018-03-03T20:08:00.240Z,100158.44
2018-03-03T20:10:27.722Z,100164.02
2018-03-03T20:12:55.243Z,100156.30
2018-03-03T20:15:22.758Z,100160.55
2018-03-03T20:17:50.243Z,100167.20
2018-03-03T20:20:17.739Z,100154.16
2018-03-03T20:22:45.243Z,100162.63
2018-03-03T20:25:12.713Z,100164.52
2018-03-03T20:27:40.206Z,100168.20
2018-03-03T20:30:08.054Z,100169.24
2018-03-03T20:32:35.569Z,100171.68
2018-03-03T20:35:03.079Z,100166.40
2018-03-03T20:37:30.551Z,100166.27
2018-03-03T20:39:58.047Z,100164.80
2018-03-03T20:42:26.432Z,100178.77
2018-03-03T20:44:53.904Z,100176.05
2018-03-03T20:47:21.387Z,100173.49
2018-03-03T20:49:48.937Z,100175.44
2018-03-03T20:52:16.419Z,100177.78
2018-03-03T20:54:43.893Z,100176.47
2018-03-03T20:57:11.517Z,100179.52
2018-03-03T20:59:39.051Z,100170.64
2018-03-03T21:02:06.555Z,100172.87
2018-03-03T21:04:34.094Z,100177.98
2018-03-03T21:07:01.604Z,100179.09
2018-03-03T21:09:29.079Z,100178.84
2018-03-03T21:11:59.502Z,100174.33
2018-03-03T21:14:27.002Z,100175.28
2018-03-03T21:16:54.477Z,100175.36
2018-03-03T21:19:21.969Z,100168.14
2018-03-03T21:21:49.540Z,100171.41
2018-03-03T21:24:17.014Z,100174.17
2018-03-03T21:26:44.495Z,100179.40
2018-03-03T21:29:11.986Z,100180.64
2018-03-03T21:31:39.530Z,100180.28
2018-03-03T21:34:07.006Z,100183.18
2018-03-03T21:36:34.523Z,100176.73
2018-03-03T21:39:02.168Z,100179.69
2018-03-03T21:41:29.649Z,100190.01
2018-03-03T21:43:57.180Z,100192.31
2018-03-03T21:46:24.824Z,100197.38
2018-03-03T21:48:52.323Z,100193.13
2018-03-03T21:51:19.813Z,100193.41
2018-03-03T21:53:47.385Z,100195.71
2018-03-03T21:56:14.860Z,100200.83
2018-03-03T21:58:42.367Z,100204.04
2018-03-03T22:01:09.873Z,100204.78
2018-03-03T22:03:37.377Z,100207.13
2018-03-03T22:06:04.898Z,100211.98
2018-03-03T22:08:32.410Z,100208.12
2018-03-03T22:11:00.169Z,100208.95
2018-03-03T22:13:27.667Z,100218.34
2018-03-03T22:15:55.779Z,100220.62
2018-03-03T22:18:23.477Z,100222.72
2018-03-03T22:20:51.072Z,100224.23
2018-03-03T22:23:18.566Z,100222.34
2018-03-03T22:25:46.086Z,100217.83
2018-03-03T22:28:13.606Z,100222.74
2018-03-03T22:30:41.084Z,100222.82
2018-03-03T22:33:08.644Z,100223.64
2018-03-03T22:35:36.151Z,100219.64
2018-03-03T22:38:03.638Z,100217.63
2018-03-03T22:40:31.149Z,100221.58
2018-03-03T22:42:58.729Z,100223.43
2018-03-03T22:45:26.243Z,100215.69
2018-03-03T22:47:53.830Z,100214.28
2018-03-03T22:50:21.408Z,100218.31
2018-03-03T22:52:48.912Z,100206.98
2018-03-03T22:55:16.399Z,100205.78
2018-03-03T22:57:43.887Z,100205.11
2018-03-03T23:00:11.374Z,100202.83
2018-03-03T23:02:38.920Z,100205.67
2018-03-03T23:05:06.455Z,100202.75
2018-03-03T23:07:33.959Z,100203.03
2018-03-03T23:10:01.508Z,100189.35
2018-03-03T23:12:29.004Z,100191.50
2018-03-03T23:14:56.543Z,100192.98
2018-03-03T23:17:24.027Z,100193.19
2018-03-03T23:19:51.521Z,100195.45
2018-03-03T23:22:19.058Z,100182.75
2018-03-03T23:24:46.533Z,100184.64
2018-03-03T23:27:14.110Z,100187.13
2018-03-03T23:29:41.580Z,100186.20
2018-03-03T23:32:09.053Z,100190.85
2018-03-03T23:34:36.550Z,100198.92
2018-03-03T23:37:04.046Z,100205.00
2018-03-03T23:39:31.536Z,100200.02
2018-03-03T23:41:59.006Z,100197.63
2018-03-03T23:44:26.545Z,100201.67
2018-03-03T23:46:54.032Z,100205.14
2018-03-03T23:49:21.554Z,100208.13
2018-03-03T23:51:49.043Z,100194.02
2018-03-03T23:54:16.548Z,100195.53
2018-03-03T23:56:44.315Z,100198.00
2018-03-03T23:59:11.845Z,100196.34
